Time;durP1;ratioP1;P1;durP2;ratioP2;P2;SDS_P1;SDS_P2;PMS_P1;PMS_P2;Temp;Humidity;BMP_temperature;BMP_pressure;BME280_temperature;BME280_humidity;BME280_pressure;Samples;Min_cycle;Max_cycle;Signal;HPM_P1;HPM_P2
2022/01/04 00:01:24;;;;;;;67.80;38.70;;;;;;;4.82;100.00;99799.59;5051105;28;20048;-67
2022/01/04 00:03:49;;;;;;;64.55;36.78;;;;;;;4.83;100.00;99807.16;5050923;28;20075;-67
2022/01/04 00:06:15;;;;;;;64.07;36.03;;;;;;;4.88;100.00;99828.09;5067660;28;20032;-66
2022/01/04 00:08:40;;;;;;;60.90;35.20;;;;;;;4.63;100.00;99803.13;5070756;28;20048;-66
2022/01/04 00:11:16;;;;;;;57.45;36.03;;;;;;;4.98;100.00;99881.75;5069780;28;20025;-67
2022/01/04 00:13:42;;;;;;;51.92;32.47;;;;;;;4.46;100.00;99818.31;5071067;28;20122;-66
2022/01/04 00:16:10;;;;;;;50.47;31.75;;;;;;;4.67;100.00;99820.72;5070571;28;20036;-67
2022/01/04 00:18:35;;;;;;;46.50;28.63;;;;;;;5.01;100.00;99876.72;5069806;28;20402;-67
2022/01/04 00:21:01;;;;;;;44.45;28.48;;;;;;;4.89;100.00;99874.28;5069467;28;20043;-66
2022/01/04 00:23:26;;;;;;;46.25;29.67;;;;;;;4.72;100.00;99829.06;5070534;28;20040;-66
2022/01/04 00:25:52;;;;;;;50.20;30.75;;;;;;;4.93;100.00;99886.00;5069735;28;20024;-68
2022/01/04 00:28:17;;;;;;;50.95;31.98;;;;;;;5.03;100.00;99897.69;5071256;28;20082;-67
2022/01/04 00:30:43;;;;;;;47.80;30.05;;;;;;;4.78;100.00;99891.97;5069266;28;20028;-66
2022/01/04 00:33:11;;;;;;;41.30;27.42;;;;;;;4.91;100.00;99833.09;5071105;28;20052;-67
2022/01/04 00:35:38;;;;;;;45.03;29.90;;;;;;;4.91;100.00;99880.94;5070680;28;20051;-66
2022/01/04 00:38:04;;;;;;;46.55;29.92;;;;;;;4.37;100.00;99796.59;5069058;28;20455;-66
2022/01/04 00:40:30;;;;;;;47.80;30.73;;;;;;;5.02;100.00;99881.72;5070905;28;20102;-67
2022/01/04 00:42:58;;;;;;;44.53;29.58;;;;;;;5.17;100.00;99869.00;5070778;28;20075;-67
2022/01/04 00:45:24;;;;;;;43.17;30.00;;;;;;;4.58;100.00;99809.84;5070791;28;20039;-68
2022/01/04 00:50:18;;;;;;;42.35;29.75;;;;;;;4.74;100.00;99812.25;5070653;28;20119;-67
2022/01/04 00:52:44;;;;;;;43.33;29.65;;;;;;;4.55;100.00;99804.84;5070677;28;20487;-66
2022/01/04 00:55:09;;;;;;;48.25;31.95;;;;;;;4.81;100.00;99835.72;5069367;28;20027;-67
2022/01/04 00:57:35;;;;;;;45.55;30.67;;;;;;;4.63;100.00;99798.09;5070440;28;20100;-65
2022/01/04 01:00:02;;;;;;;47.67;31.92;;;;;;;4.80;100.00;99854.19;5069442;28;20115;-68
2022/01/04 01:02:27;;;;;;;49.25;32.13;;;;;;;4.72;100.00;99831.56;4574450;22;10002021;-66
2022/01/04 01:04:53;;;;;;;46.58;31.73;;;;;;;4.54;100.00;99834.22;5012668;28;20037;-67
2022/01/04 01:07:18;;;;;;;51.20;33.17;;;;;;;4.46;100.00;99843.47;5030537;28;20473;-67
2022/01/04 01:10:01;;;;;;;49.33;34.20;;;;;;;4.04;100.00;99816.06;5012896;28;20483;-68
2022/01/04 01:12:26;;;;;;;41.33;29.48;;;;;;;3.89;100.00;99838.72;5030707;28;20029;-67
2022/01/04 01:14:52;;;;;;;43.70;30.98;;;;;;;3.76;100.00;99822.88;5014076;28;20022;-68
2022/01/04 01:17:17;;;;;;;45.40;30.30;;;;;;;4.11;100.00;99878.88;5033892;28;20021;-67
2022/01/04 01:19:43;;;;;;;40.33;27.35;;;;;;;3.48;100.00;99812.06;5034229;28;20380;-67
2022/01/04 01:22:08;;;;;;;36.25;24.48;;;;;;;3.89;100.00;99889.00;5034392;28;20509;-67
2022/01/04 01:24:34;;;;;;;35.05;24.30;;;;;;;4.19;100.00;99886.41;5033979;28;20029;-67
2022/01/04 01:26:59;;;;;;;43.92;29.40;;;;;;;3.76;100.00;99840.47;5034298;28;20344;-67
2022/01/04 01:29:24;;;;;;;48.38;29.95;;;;;;;4.04;100.00;99846.22;5016223;28;20513;-67
2022/01/04 01:31:50;;;;;;;37.78;25.67;;;;;;;4.16;100.00;99858.75;5034256;28;20033;-66
2022/01/04 01:34:15;;;;;;;36.08;25.70;;;;;;;3.63;100.00;99775.97;5034232;28;20032;-66
2022/01/04 01:36:40;;;;;;;40.08;25.88;;;;;;;3.53;100.00;99832.13;5034011;28;20036;-67
2022/01/04 01:39:06;;;;;;;35.00;24.83;;;;;;;4.13;100.00;99888.94;5033666;28;20396;-66
2022/01/04 01:41:31;;;;;;;36.47;25.30;;;;;;;4.23;100.00;99888.91;5016080;28;20025;-66
2022/01/04 01:43:57;;;;;;;39.97;26.77;;;;;;;4.55;100.00;99898.81;5016270;28;20476;-67
2022/01/04 01:46:22;;;;;;;39.53;25.88;;;;;;;4.48;100.00;99897.16;5033284;28;20043;-67
2022/01/04 01:48:48;;;;;;;41.40;26.80;;;;;;;3.70;100.00;99789.38;5033733;28;20021;-67
2022/01/04 01:51:16;;;;;;;34.75;25.98;;;;;;;4.00;100.00;99850.41;5033533;28;20055;-66
2022/01/04 01:53:42;;;;;;;38.00;26.60;;;;;;;3.94;100.00;99892.38;5033279;28;20033;-66
2022/01/04 01:56:08;;;;;;;37.40;26.55;;;;;;;3.76;100.00;99855.53;5033706;28;20021;-66
2022/01/04 01:58:33;;;;;;;34.92;25.33;;;;;;;4.40;100.00;99903.91;5033413;28;20079;-67
2022/01/04 02:00:59;;;;;;;36.63;25.33;;;;;;;4.11;100.00;99908.22;5033110;28;20052;-67
2022/01/04 02:03:24;;;;;;;38.60;26.00;;;;;;;3.95;100.00;99909.94;5033493;28;20049;-66
2022/01/04 02:05:51;;;;;;;37.63;26.73;;;;;;;4.18;100.00;99897.31;5015713;28;20037;-66
2022/01/04 02:08:18;;;;;;;37.47;25.60;;;;;;;3.97;100.00;99880.59;5015674;28;20301;-66
2022/01/04 02:10:44;;;;;;;38.17;27.70;;;;;;;4.02;100.00;99828.59;5033111;28;20053;-66
2022/01/04 02:13:10;;;;;;;39.00;26.48;;;;;;;3.95;100.00;99854.63;5015044;28;20029;-67
2022/01/04 02:15:36;;;;;;;34.97;25.67;;;;;;;3.81;100.00;99795.19;5032916;28;20028;-67
2022/01/04 02:18:02;;;;;;;38.10;27.05;;;;;;;3.74;100.00;99848.84;5033337;28;20034;-66
2022/01/04 02:20:28;;;;;;;43.33;30.08;;;;;;;4.06;100.00;99889.81;5032782;28;20395;-68
2022/01/04 02:22:55;;;;;;;41.53;28.92;;;;;;;4.39;100.00;99889.66;5033108;28;20029;-66
2022/01/04 02:25:21;;;;;;;46.10;32.90;;;;;;;4.17;100.00;99893.13;5032744;28;20130;-66
2022/01/04 02:27:46;;;;;;;42.38;30.77;;;;;;;4.29;100.00;99896.44;5014817;28;20505;-67
2022/01/04 02:30:15;;;;;;;42.85;29.98;;;;;;;4.22;100.00;99899.78;5014890;28;20028;-67
2022/01/04 02:32:43;;;;;;;42.45;29.80;;;;;;;3.70;100.00;99868.13;5032633;28;20568;-67
2022/01/04 02:35:09;;;;;;;42.95;29.50;;;;;;;3.80;100.00;99849.66;5032839;28;20032;-67
2022/01/04 02:37:35;;;;;;;43.28;29.20;;;;;;;4.39;100.00;99917.34;5032716;28;20037;-67
2022/01/04 02:40:00;;;;;;;39.63;28.23;;;;;;;3.94;100.00;99862.19;5032727;28;20033;-67
2022/01/04 02:42:26;;;;;;;44.05;30.42;;;;;;;3.88;100.00;99869.75;5032571;28;20067;-65
2022/01/04 02:44:51;;;;;;;48.17;31.45;;;;;;;3.70;100.00;99842.16;5032326;28;20037;-66
2022/01/04 02:47:17;;;;;;;49.08;32.70;;;;;;;3.70;100.00;99870.63;5032773;28;20025;-66
2022/01/04 02:49:44;;;;;;;49.67;33.50;;;;;;;3.55;100.00;99853.06;5014792;28;20029;-66
2022/01/04 02:52:09;;;;;;;45.60;32.65;;;;;;;3.78;100.00;99880.66;5032245;28;20033;-66
2022/01/04 02:54:35;;;;;;;47.35;32.70;;;;;;;3.71;100.00;99874.81;5032346;28;20403;-67
2022/01/04 02:57:01;;;;;;;44.53;29.95;;;;;;;4.00;100.00;99928.38;5032397;28;20504;-68
2022/01/04 02:59:26;;;;;;;42.65;28.75;;;;;;;4.22;100.00;99916.56;5032485;28;20036;-67
2022/01/04 03:01:52;;;;;;;44.97;29.85;;;;;;;3.88;100.00;99867.25;5032068;28;20056;-67
2022/01/04 03:04:17;;;;;;;40.92;27.27;;;;;;;3.77;100.00;99876.47;5014424;28;20037;-67
2022/01/04 03:06:43;;;;;;;40.95;28.10;;;;;;;3.78;100.00;99866.44;5032395;28;20036;-67
2022/01/04 03:09:08;;;;;;;39.92;27.35;;;;;;;3.88;100.00;99889.88;5032207;28;20033;-67
2022/01/04 03:11:34;;;;;;;40.38;27.08;;;;;;;4.00;100.00;99917.50;5014201;28;20421;-67
2022/01/04 03:14:00;;;;;;;40.30;27.63;;;;;;;4.33;100.00;99933.31;5014068;28;20037;-67
2022/01/04 03:16:26;;;;;;;42.40;28.10;;;;;;;3.87;100.00;99895.72;5031949;28;20037;-67
2022/01/04 03:19:09;;;;;;;37.83;26.15;;;;;;;3.29;100.00;99837.19;5014315;28;20585;-66
2022/01/04 03:21:44;;;;;;;48.42;31.70;;;;;;;4.01;100.00;99920.00;5014136;28;20029;-66
2022/01/04 03:24:12;;;;;;;45.22;30.15;;;;;;;4.05;100.00;99900.69;5032148;28;20025;-66
2022/01/04 03:26:38;;;;;;;43.38;28.23;;;;;;;3.94;100.00;99932.59;5013741;28;20103;-67
2022/01/04 03:29:06;;;;;;;39.70;26.10;;;;;;;3.91;100.00;99943.47;5014103;28;20406;-67
2022/01/04 03:31:32;;;;;;;39.55;26.48;;;;;;;3.58;100.00;99899.97;5014168;28;20483;-66
2022/01/04 03:33:57;;;;;;;35.00;24.50;;;;;;;3.69;100.00;99906.66;5031543;28;20029;-66
2022/01/04 03:36:24;;;;;;;34.45;23.55;;;;;;;3.69;100.00;99893.25;5031495;28;20096;-66
2022/01/04 03:38:51;;;;;;;35.55;22.38;;;;;;;4.02;100.00;99961.06;5013087;28;20052;-65
2022/01/04 03:41:17;;;;;;;36.80;23.92;;;;;;;4.18;100.00;99960.19;5013462;28;20442;-66
2022/01/04 03:43:43;;;;;;;31.40;21.55;;;;;;;4.10;100.00;99919.13;5013555;28;20022;-66
2022/01/04 03:46:09;;;;;;;33.83;22.25;;;;;;;3.84;100.00;99868.09;5031390;28;20107;-66
2022/01/04 03:48:35;;;;;;;33.03;21.63;;;;;;;3.97;100.00;99895.69;5031493;28;20124;-68
2022/01/04 03:51:01;;;;;;;35.80;22.13;;;;;;;4.33;100.00;99987.81;5031427;28;20123;-66
2022/01/04 03:53:27;;;;;;;34.20;22.60;;;;;;;3.57;100.00;99928.44;5031055;28;20096;-66
2022/01/04 03:55:52;;;;;;;42.47;25.65;;;;;;;3.76;100.00;99940.16;5031174;28;20550;-65
2022/01/04 03:58:17;;;;;;;32.72;21.92;;;;;;;4.02;100.00;99976.16;5031238;28;20467;-66
2022/01/04 04:00:43;;;;;;;33.63;22.20;;;;;;;4.16;100.00;99969.44;5031327;28;20483;-66
2022/01/04 04:03:08;;;;;;;33.92;22.48;;;;;;;4.00;100.00;99945.16;5013420;28;20492;-66
2022/01/04 04:05:34;;;;;;;33.85;22.75;;;;;;;4.12;100.00;99985.38;5030591;28;20045;-66
2022/01/04 04:07:59;;;;;;;36.72;22.70;;;;;;;4.08;100.00;99983.69;5013102;28;20033;-66
2022/01/04 04:10:25;;;;;;;33.63;21.63;;;;;;;4.01;100.00;99966.94;5011745;28;20034;-66
2022/01/04 04:12:50;;;;;;;33.58;21.92;;;;;;;3.71;100.00;99932.63;5013025;28;20502;-66
2022/01/04 04:15:15;;;;;;;31.80;20.83;;;;;;;4.01;100.00;99980.34;5012706;28;20624;-66
2022/01/04 04:17:41;;;;;;;36.25;23.35;;;;;;;4.09;100.00;99977.81;5031250;28;20022;-67
2022/01/04 04:20:07;;;;;;;36.03;24.58;;;;;;;4.15;100.00;99990.38;5012880;28;20034;-66
2022/01/04 04:22:32;;;;;;;31.98;22.08;;;;;;;3.83;100.00;99925.06;5013412;28;20079;-66
2022/01/04 04:24:58;;;;;;;36.78;20.90;;;;;;;4.09;100.00;99987.88;5030435;28;20037;-66
2022/01/04 04:27:24;;;;;;;38.42;23.33;;;;;;;4.06;100.00;99988.69;5012636;28;20083;-66
2022/01/04 04:29:49;;;;;;;35.33;22.50;;;;;;;3.93;100.00;99987.06;5031055;28;20534;-66
2022/01/04 04:32:15;;;;;;;33.58;22.85;;;;;;;3.85;100.00;100005.50;5030721;28;20124;-66
2022/01/04 04:34:41;;;;;;;33.88;22.00;;;;;;;3.78;100.00;100006.34;5013059;28;20468;-66
2022/01/04 04:37:06;;;;;;;35.55;24.48;;;;;;;3.73;100.00;100003.84;5030727;28;20037;-66
2022/01/04 04:39:31;;;;;;;33.88;23.55;;;;;;;3.53;100.00;99935.16;5030307;28;20026;-66
2022/01/04 04:41:57;;;;;;;35.15;23.20;;;;;;;3.46;100.00;99946.88;5012384;28;20034;-66
2022/01/04 04:44:22;;;;;;;36.15;24.77;;;;;;;3.61;100.00;99948.53;5028164;28;20475;-66
2022/01/04 04:46:49;;;;;;;36.83;24.38;;;;;;;3.94;100.00;99987.91;5012356;28;20037;-68
2022/01/04 04:49:15;;;;;;;33.25;23.35;;;;;;;4.10;100.00;99997.09;5014781;28;20079;-68
2022/01/04 04:51:40;;;;;;;36.10;26.13;;;;;;;3.32;100.00;99905.84;5016727;28;20029;-68
2022/01/04 04:54:06;;;;;;;41.85;28.20;;;;;;;3.71;100.00;99936.81;5034126;28;20495;-67
2022/01/04 04:56:31;;;;;;;37.90;26.05;;;;;;;4.16;100.00;100009.66;5016783;28;20029;-67
2022/01/04 04:58:57;;;;;;;35.85;24.77;;;;;;;4.15;100.00;99988.72;5033938;28;20021;-68
2022/01/04 05:01:22;;;;;;;38.40;25.35;;;;;;;3.67;100.00;99933.47;5016406;28;20036;-67
2022/01/04 05:03:51;;;;;;;36.58;24.85;;;;;;;4.10;100.00;100002.94;5016292;28;20136;-66
2022/01/04 05:06:17;;;;;;;39.13;25.63;;;;;;;3.77;100.00;99982.88;5016468;28;20201;-67
2022/01/04 05:08:42;;;;;;;35.13;25.15;;;;;;;4.03;100.00;99987.88;5012035;28;20128;-66
2022/01/04 05:11:08;;;;;;;35.97;25.10;;;;;;;3.59;100.00;99915.03;5014064;28;20030;-67
2022/01/04 05:13:33;;;;;;;37.47;25.45;;;;;;;3.89;100.00;99924.19;5014731;28;20081;-67
2022/01/04 05:15:58;;;;;;;49.05;31.48;;;;;;;3.49;100.00;99883.22;5012655;28;20152;-67
2022/01/04 05:18:24;;;;;;;49.33;34.13;;;;;;;3.84;100.00;99958.59;5014040;28;20139;-68
2022/01/04 05:20:49;;;;;;;46.90;31.77;;;;;;;4.15;100.00;100018.88;5013590;28;20029;-67
2022/01/04 05:23:15;;;;;;;49.97;33.63;;;;;;;3.86;100.00;99967.81;4996071;28;20034;-67
2022/01/04 05:25:40;;;;;;;43.90;31.17;;;;;;;4.04;100.00;100002.13;5013532;28;20036;-68
2022/01/04 05:28:06;;;;;;;51.60;35.70;;;;;;;4.00;100.00;100028.13;5013774;28;20389;-67
2022/01/04 05:30:31;;;;;;;45.88;34.45;;;;;;;3.96;100.00;100023.94;5014052;28;20116;-67
2022/01/04 05:32:56;;;;;;;52.75;35.28;;;;;;;3.73;100.00;99967.78;5013679;28;20034;-67
2022/01/04 05:35:22;;;;;;;50.00;34.67;;;;;;;3.94;100.00;100021.41;5013428;28;20030;-67
2022/01/04 05:37:47;;;;;;;51.13;35.65;;;;;;;3.74;100.00;99972.84;4996069;28;20110;-68
2022/01/04 05:40:13;;;;;;;50.00;34.53;;;;;;;3.68;100.00;99966.97;5014201;28;20061;-68
2022/01/04 05:42:38;;;;;;;55.20;36.28;;;;;;;3.58;100.00;99980.38;4996368;28;20069;-67
2022/01/04 05:45:04;;;;;;;50.80;34.72;;;;;;;4.54;100.00;100022.13;4996839;28;20033;-67
2022/01/04 05:47:30;;;;;;;47.65;32.25;;;;;;;4.68;100.00;100028.81;5014204;28;20049;-68
2022/01/04 05:49:55;;;;;;;47.40;34.63;;;;;;;4.11;100.00;99994.56;5012683;28;20476;-69
2022/01/04 05:52:21;;;;;;;51.33;37.33;;;;;;;4.52;100.00;100043.94;5012005;28;20498;-68
2022/01/04 05:54:49;;;;;;;46.95;33.17;;;;;;;4.57;100.00;100040.59;5012170;28;20026;-68
2022/01/04 05:57:15;;;;;;;51.42;36.70;;;;;;;4.55;100.00;100054.88;5011450;28;20511;-68
2022/01/04 05:59:40;;;;;;;58.25;39.75;;;;;;;4.51;100.00;100033.06;4995234;28;20056;-68
2022/01/04 06:02:06;;;;;;;48.72;33.80;;;;;;;4.49;100.00;100042.28;5012543;28;20053;-67
2022/01/04 06:04:31;;;;;;;92.05;53.70;;;;;;;4.49;100.00;100056.56;5012666;28;20037;-68
2022/01/04 06:06:56;;;;;;;64.85;41.28;;;;;;;4.22;100.00;99999.56;5012340;28;20040;-68
2022/01/04 06:09:27;;;;;;;84.20;54.00;;;;;;;4.42;100.00;100050.69;4994810;28;20034;-67
2022/01/04 06:17:04;;;;;;;46.78;34.67;;;;;;;4.20;100.00;100077.56;5012832;28;20475;-67
2022/01/04 06:19:30;;;;;;;41.53;29.88;;;;;;;4.09;100.00;100070.88;5012498;28;20030;-68
2022/01/04 06:21:56;;;;;;;34.72;23.33;;;;;;;4.12;100.00;100048.25;5012942;28;20396;-68
2022/01/04 06:24:21;;;;;;;34.15;24.15;;;;;;;4.04;100.00;100022.25;5011537;28;20084;-68
2022/01/04 06:26:47;;;;;;;38.30;26.85;;;;;;;4.33;100.00;100076.72;5013206;28;20032;-68
2022/01/04 06:29:14;;;;;;;37.83;24.65;;;;;;;4.18;100.00;100074.19;4995460;28;20034;-69
2022/01/04 06:31:40;;;;;;;39.80;29.08;;;;;;;3.78;100.00;100012.22;4995152;28;20042;-68
2022/01/04 06:34:05;;;;;;;44.03;30.70;;;;;;;4.52;100.00;100069.97;4994968;28;20475;-68
2022/01/04 06:36:31;;;;;;;57.58;41.60;;;;;;;4.06;100.00;100033.16;5012849;28;20116;-68
2022/01/04 06:38:57;;;;;;;68.38;47.80;;;;;;;4.37;100.00;100077.56;5012926;28;20030;-68
2022/01/04 06:41:22;;;;;;;75.57;50.92;;;;;;;4.61;100.00;100090.09;5011605;28;20033;-68
2022/01/04 06:43:48;;;;;;;64.53;47.30;;;;;;;4.66;100.00;100083.34;5011384;28;20030;-68
2022/01/04 06:46:13;;;;;;;55.67;38.83;;;;;;;5.10;100.00;100018.53;5012658;28;20034;-68
2022/01/04 06:48:40;;;;;;;60.40;41.17;;;;;;;6.45;100.00;100094.06;5012426;28;20033;-68
2022/01/04 06:51:06;;;;;;;56.22;38.28;;;;;;;6.05;100.00;100100.28;5011390;28;20038;-69
2022/01/04 06:53:32;;;;;;;46.83;34.38;;;;;;;6.47;100.00;100106.66;5011020;28;20125;-68
2022/01/04 06:55:58;;;;;;;52.00;35.55;;;;;;;6.44;100.00;100018.34;5012658;28;20064;-68
2022/01/04 06:58:23;;;;;;;47.03;32.35;;;;;;;6.39;100.00;100055.41;5011435;28;20149;-68
2022/01/04 07:00:49;;;;;;;48.83;33.33;;;;;;;8.20;100.00;100056.25;5012247;28;20036;-68
2022/01/04 07:03:14;;;;;;;46.10;30.75;;;;;;;6.70;100.00;100079.47;5010824;28;20037;-69
2022/01/04 07:05:40;;;;;;;54.45;39.03;;;;;;;6.32;100.00;100064.72;5012615;28;20468;-68
2022/01/04 07:08:05;;;;;;;49.60;34.38;;;;;;;6.19;100.00;100125.41;5012251;28;20042;-68
2022/01/04 07:10:31;;;;;;;53.13;39.38;;;;;;;6.27;100.00;100089.16;5012349;28;20117;-68
2022/01/04 07:12:56;;;;;;;60.70;41.65;;;;;;;6.38;100.00;100145.44;5009805;28;20036;-68
2022/01/04 07:15:22;;;;;;;48.00;37.13;;;;;;;6.43;100.00;100156.34;5012128;28;20048;-68
2022/01/04 07:17:47;;;;;;;41.50;31.85;;;;;;;6.49;100.00;100147.88;5010635;28;20034;-69
2022/01/04 07:20:14;;;;;;;42.90;30.65;;;;;;;6.67;100.00;100161.19;5012066;28;20056;-68
2022/01/04 07:22:40;;;;;;;53.05;36.47;;;;;;;6.96;100.00;100156.69;4994039;28;20420;-68
2022/01/04 07:25:06;;;;;;;70.78;41.83;;;;;;;7.11;100.00;100137.97;4994386;28;20480;-68
2022/01/04 07:27:33;;;;;;;57.65;38.78;;;;;;;6.95;100.00;100144.88;5010471;28;20175;-68
2022/01/04 07:29:59;;;;;;;53.20;38.05;;;;;;;6.51;100.00;100080.53;5011677;28;20520;-68
2022/01/04 07:32:24;;;;;;;48.72;33.67;;;;;;;6.46;100.00;100089.81;4993869;28;20149;-69
2022/01/04 07:34:50;;;;;;;42.33;28.27;;;;;;;6.42;100.00;100139.50;4994368;28;20530;-68
2022/01/04 07:37:15;;;;;;;41.53;30.35;;;;;;;6.65;100.00;100117.44;4994186;28;20044;-68
2022/01/04 07:39:41;;;;;;;46.55;33.05;;;;;;;6.49;100.00;100133.56;5010565;28;20021;-68
2022/01/04 07:42:07;;;;;;;44.92;34.22;;;;;;;6.58;100.00;100065.28;5011740;28;20451;-68
2022/01/04 07:44:33;;;;;;;53.50;42.53;;;;;;;7.19;100.00;100131.13;5011316;28;20037;-68
2022/01/04 07:46:58;;;;;;;49.95;35.85;;;;;;;6.32;100.00;100033.59;5010329;28;20529;-68
2022/01/04 07:49:24;;;;;;;69.10;51.40;;;;;;;6.65;100.00;100041.66;5011722;28;20075;-68
2022/01/04 07:51:49;;;;;;;55.65;43.03;;;;;;;6.96;100.00;100087.59;5011424;28;20483;-68
2022/01/04 07:54:15;;;;;;;46.05;33.55;;;;;;;7.26;100.00;100140.31;4993739;28;20033;-68
2022/01/04 07:56:40;;;;;;;51.17;37.78;;;;;;;7.34;100.00;100138.53;4993785;28;20030;-68
2022/01/04 07:59:06;;;;;;;50.72;34.95;;;;;;;7.77;100.00;100152.28;5009882;28;20391;-68
2022/01/04 08:01:31;;;;;;;49.25;34.13;;;;;;;7.53;100.00;100149.25;5011186;28;20037;-68
2022/01/04 08:03:57;;;;;;;53.90;40.75;;;;;;;7.46;100.00;100143.44;5011398;28;20064;-68
2022/01/04 08:06:23;;;;;;;51.17;37.88;;;;;;;7.23;100.00;100099.91;5009833;28;20471;-68
2022/01/04 08:08:49;;;;;;;49.53;36.85;;;;;;;7.53;100.00;100098.66;5011292;28;20026;-68
2022/01/04 08:11:14;;;;;;;43.53;29.35;;;;;;;8.01;100.00;100122.41;5011234;28;20041;-68
2022/01/04 08:13:40;;;;;;;45.65;30.40;;;;;;;7.51;100.00;100123.13;5010789;28;20241;-68
2022/01/04 08:16:05;;;;;;;57.83;41.92;;;;;;;7.69;100.00;100131.31;5010990;28;20045;-68
2022/01/04 08:18:30;;;;;;;51.40;38.30;;;;;;;6.84;100.00;100083.53;5010847;28;20030;-69
2022/01/04 08:20:57;;;;;;;40.22;29.35;;;;;;;7.31;100.00;100039.94;5011360;28;20030;-68
2022/01/04 08:23:24;;;;;;;47.83;31.48;;;;;;;7.97;100.00;100120.78;5010692;28;20618;-68
2022/01/04 08:25:51;;;;;;;35.25;25.75;;;;;;;7.33;100.00;100068.59;4993364;28;20496;-68
2022/01/04 08:28:16;;;;;;;40.38;26.63;;;;;;;7.50;100.00;100139.19;4993114;28;20511;-68
2022/01/04 08:30:43;;;;;;;39.40;27.10;;;;;;;7.87;100.00;100105.75;5009415;28;20061;-68
2022/01/04 08:33:09;;;;;;;24.23;15.30;;;;;;;7.37;100.00;100079.53;5010643;28;20125;-68
2022/01/04 08:35:36;;;;;;;30.98;21.00;;;;;;;7.35;100.00;100122.50;5009581;28;20399;-68
2022/01/04 08:38:02;;;;;;;18.95;13.98;;;;;;;7.58;100.00;100132.31;5010834;28;20029;-68
2022/01/04 08:40:27;;;;;;;23.27;14.60;;;;;;;7.93;100.00;100125.06;4993131;28;20030;-67
2022/01/04 08:42:53;;;;;;;18.85;13.07;;;;;;;7.71;100.00;100137.19;5010804;28;20041;-68
2022/01/04 08:45:20;;;;;;;18.65;12.23;;;;;;;7.84;100.00;100077.13;5010794;28;20492;-68
2022/01/04 08:47:49;;;;;;;20.77;12.48;;;;;;;8.08;100.00;100114.69;5010873;28;20034;-68
2022/01/04 08:50:14;;;;;;;24.40;12.98;;;;;;;7.30;100.00;100055.16;5010837;28;20487;-67
2022/01/04 08:52:40;;;;;;;20.90;14.43;;;;;;;7.31;100.00;100045.00;5010687;28;20088;-67
2022/01/04 08:55:07;;;;;;;26.20;15.35;;;;;;;7.95;100.00;100138.53;5009301;28;20479;-68
2022/01/04 08:57:33;;;;;;;23.25;13.15;;;;;;;8.03;100.00;100135.88;5009450;28;20038;-68
2022/01/04 08:59:58;;;;;;;24.77;15.55;;;;;;;7.74;100.00;100088.25;5010464;28;20029;-69
2022/01/04 09:02:24;;;;;;;31.50;16.45;;;;;;;7.26;100.00;100018.97;5010339;28;20525;-69
2022/01/04 09:04:50;;;;;;;32.00;16.48;;;;;;;7.77;100.00;100058.66;4993252;28;20033;-69
2022/01/04 09:07:17;;;;;;;23.50;14.60;;;;;;;7.70;100.00;100064.69;4992940;28;20096;-68
2022/01/04 09:09:42;;;;;;;24.88;16.48;;;;;;;7.93;100.00;100114.09;5010336;28;20034;-69
2022/01/04 09:12:08;;;;;;;21.13;14.35;;;;;;;8.05;100.00;100121.50;5010489;28;20037;-69
2022/01/04 09:20:03;;;;;;;22.85;12.50;;;;;;;8.68;100.00;100136.50;5010227;28;20045;-69
2022/01/04 09:22:28;;;;;;;19.13;13.18;;;;;;;8.55;100.00;100046.38;5009023;28;20422;-69
2022/01/04 09:24:54;;;;;;;17.83;10.80;;;;;;;8.52;100.00;100063.31;4992777;28;20125;-69
2022/01/04 09:27:19;;;;;;;18.08;11.60;;;;;;;9.03;100.00;100127.41;5010108;28;20087;-69
2022/01/04 09:29:44;;;;;;;19.25;11.68;;;;;;;9.26;100.00;100110.03;5010349;28;20033;-69
2022/01/04 09:32:16;;;;;;;19.05;12.25;;;;;;;9.34;100.00;100088.72;5009115;28;20419;-68
2022/01/04 09:34:42;;;;;;;21.42;13.95;;;;;;;9.52;100.00;100059.56;5010233;28;20037;-69
2022/01/04 09:37:07;;;;;;;21.40;13.15;;;;;;;9.81;100.00;100080.03;5013481;28;20041;-69
2022/01/04 09:39:33;;;;;;;17.80;12.07;;;;;;;9.68;100.00;100093.91;5012466;28;20034;-69
2022/01/04 09:41:59;;;;;;;22.13;11.07;;;;;;;9.34;100.00;100038.00;4996083;28;20479;-69
2022/01/04 09:44:27;;;;;;;17.27;9.73;;;;;;;9.46;100.00;100047.03;5014010;28;20030;-69
2022/01/04 09:46:53;;;;;;;18.10;10.18;;;;;;;9.89;100.00;100105.25;4996180;28;20018;-69
2022/01/04 09:49:19;;;;;;;17.50;11.77;;;;;;;9.45;100.00;100058.88;4995887;28;20037;-69
2022/01/04 09:51:45;;;;;;;19.92;12.13;;;;;;;9.40;100.00;100040.41;5012316;28;20026;-69
2022/01/04 09:54:11;;;;;;;19.95;12.68;;;;;;;9.38;100.00;100004.06;5013466;28;20480;-69
2022/01/04 09:56:36;;;;;;;20.13;12.57;;;;;;;9.54;100.00;100035.84;4995672;28;20029;-69
2022/01/04 09:59:03;;;;;;;23.65;13.38;;;;;;;9.13;100.00;99980.09;4996014;28;20091;-69
2022/01/04 10:01:35;;;;;;;19.30;12.07;;;;;;;9.57;100.00;100060.28;5013778;28;20033;-68
2022/01/04 10:04:01;;;;;;;17.70;12.32;;;;;;;9.59;100.00;100035.72;4992416;28;20051;-70
2022/01/04 10:06:26;;;;;;;15.05;11.13;;;;;;;9.58;100.00;100055.22;5009002;28;20034;-69
2022/01/04 10:09:00;;;;;;;20.25;13.55;;;;;;;9.58;100.00;100080.59;4993773;28;20034;-69
2022/01/04 10:11:57;;;;;;;19.38;13.18;;;;;;;9.98;100.00;100069.50;4994004;28;20034;-69
2022/01/04 10:14:32;;;;;;;30.25;19.65;;;;;;;9.68;100.00;100040.59;4991611;28;20116;-69
2022/01/04 10:17:00;;;;;;;30.75;21.13;;;;;;;9.79;100.00;100025.94;4993753;28;20456;-69
2022/01/04 10:19:49;;;;;;;31.00;18.20;;;;;;;10.03;100.00;100077.81;5008300;28;20504;-69
2022/01/04 10:22:25;;;;;;;30.17;20.58;;;;;;;9.79;100.00;99989.53;4993746;28;20022;-69
2022/01/04 10:25:09;;;;;;;28.83;20.83;;;;;;;10.18;100.00;100041.94;4992168;28;20030;-69
2022/01/04 10:27:39;;;;;;;30.95;20.80;;;;;;;10.22;100.00;100041.81;4993108;28;20034;-69
2022/01/04 10:30:07;;;;;;;29.58;20.45;;;;;;;10.42;100.00;100051.44;4991990;28;20026;-69
2022/01/04 10:32:46;;;;;;;24.67;17.58;;;;;;;10.11;100.00;100008.22;4993663;28;20469;-69
2022/01/04 10:35:23;;;;;;;30.50;18.35;;;;;;;10.25;100.00;100046.81;5008310;28;20125;-69
2022/01/04 10:37:48;;;;;;;24.10;18.65;;;;;;;9.90;100.00;99973.19;4993144;28;20057;-69
2022/01/04 10:40:14;;;;;;;28.00;19.73;;;;;;;10.37;100.00;100032.97;4991398;28;20053;-69
2022/01/04 10:42:39;;;;;;;25.15;18.17;;;;;;;10.33;100.00;100019.50;4993114;28;20026;-68
2022/01/04 10:45:25;;;;;;;32.10;19.95;;;;;;;10.32;100.00;100039.84;5008204;28;20031;-69
2022/01/04 10:47:51;;;;;;;27.88;18.95;;;;;;;10.36;100.00;99978.75;4992880;28;20104;-68
2022/01/04 10:50:37;;;;;;;95.57;62.75;;;;;;;10.37;100.00;99989.75;4993040;28;20032;-68
2022/01/04 10:53:04;;;;;;;50.67;34.00;;;;;;;10.56;100.00;100035.84;4991855;28;20042;-68
2022/01/04 10:55:36;;;;;;;27.98;20.30;;;;;;;10.65;100.00;100038.97;4991806;28;20027;-69
2022/01/04 10:58:04;;;;;;;28.70;20.75;;;;;;;10.51;100.00;100037.66;4992903;28;20034;-69
2022/01/04 11:00:30;;;;;;;30.60;17.67;;;;;;;10.68;100.00;100046.50;4992927;28;20037;-68
2022/01/04 11:02:58;;;;;;;25.05;15.93;;;;;;;10.29;100.00;99982.34;5002140;28;20053;-68
2022/01/04 11:05:24;;;;;;;23.20;16.83;;;;;;;10.43;100.00;100042.97;5010741;28;20085;-69
2022/01/04 11:07:56;;;;;;;23.20;18.83;;;;;;;10.36;100.00;100037.19;5012129;28;20034;-69
2022/01/04 11:10:21;;;;;;;53.00;36.45;;;;;;;10.32;100.00;99967.00;5012168;28;20484;-69
2022/01/04 11:12:48;;;;;;;26.65;17.27;;;;;;;10.84;100.00;100019.78;4994478;28;20121;-69
2022/01/04 11:15:14;;;;;;;44.33;26.30;;;;;;;10.87;100.00;100019.72;5012074;28;20026;-69
2022/01/04 11:17:40;;;;;;;33.13;20.20;;;;;;;10.50;100.00;99986.00;5011738;28;20112;-69
2022/01/04 11:20:07;;;;;;;36.95;23.70;;;;;;;11.05;100.00;100021.69;5010834;28;20088;-69
2022/01/04 11:22:33;;;;;;;45.17;31.98;;;;;;;11.49;100.00;100027.19;5012333;28;20551;-68